sensor_id;sensor_type;location;lat;lon;timestamp;pressure;altitude;pressure_sealevel;temperature;humidity
43707;BME280;61348;53.392;-6.248;2023-04-15T00:00:10;100651.22;;;7.78;67.40
43707;BME280;61348;53.392;-6.248;2023-04-15T00:02:37;100663.56;;;7.72;67.49
43707;BME280;61348;53.392;-6.248;2023-04-15T00:05:04;100661.00;;;7.67;67.71
43707;BME280;61348;53.392;-6.248;2023-04-15T00:07:31;100664.56;;;7.59;67.91
43707;BME280;61348;53.392;-6.248;2023-04-15T00:09:58;100664.59;;;7.51;67.93
43707;BME280;61348;53.392;-6.248;2023-04-15T00:12:26;100671.09;;;7.46;68.18
43707;BME280;61348;53.392;-6.248;2023-04-15T00:14:53;100685.50;;;7.43;68.30
43707;BME280;61348;53.392;-6.248;2023-04-15T00:17:21;100681.13;;;7.42;68.35
43707;BME280;61348;53.392;-6.248;2023-04-15T00:19:48;100687.91;;;7.45;68.35
43707;BME280;61348;53.392;-6.248;2023-04-15T00:22:15;100683.22;;;7.45;68.30
43707;BME280;61348;53.392;-6.248;2023-04-15T00:24:42;100695.38;;;7.44;68.29
43707;BME280;61348;53.392;-6.248;2023-04-15T00:27:09;100698.78;;;7.41;68.56
43707;BME280;61348;53.392;-6.248;2023-04-15T00:29:36;100692.78;;;7.39;68.65
43707;BME280;61348;53.392;-6.248;2023-04-15T00:32:03;100696.19;;;7.36;68.54
43707;BME280;61348;53.392;-6.248;2023-04-15T00:34:30;100703.00;;;7.30;68.94
43707;BME280;61348;53.392;-6.248;2023-04-15T00:36:56;100703.00;;;7.30;69.04
43707;BME280;61348;53.392;-6.248;2023-04-15T00:39:23;100709.47;;;7.25;68.96
43707;BME280;61348;53.392;-6.248;2023-04-15T00:41:50;100709.63;;;7.20;69.34
43707;BME280;61348;53.392;-6.248;2023-04-15T00:44:17;100709.31;;;7.22;69.23
43707;BME280;61348;53.392;-6.248;2023-04-15T00:46:44;100700.06;;;7.18;69.53
43707;BME280;61348;53.392;-6.248;2023-04-15T00:49:12;100708.50;;;7.13;69.42
43707;BME280;61348;53.392;-6.248;2023-04-15T00:51:38;100698.13;;;7.10;69.13
43707;BME280;61348;53.392;-6.248;2023-04-15T00:54:05;100702.34;;;7.07;69.43
43707;BME280;61348;53.392;-6.248;2023-04-15T00:56:35;100708.00;;;7.02;69.66
43707;BME280;61348;53.392;-6.248;2023-04-15T00:59:04;100705.75;;;6.96;69.61
43707;BME280;61348;53.392;-6.248;2023-04-15T01:01:33;100707.84;;;6.90;69.84
43707;BME280;61348;53.392;-6.248;2023-04-15T01:04:01;100702.31;;;6.82;70.00
43707;BME280;61348;53.392;-6.248;2023-04-15T01:06:29;100714.09;;;6.73;70.36
43707;BME280;61348;53.392;-6.248;2023-04-15T01:08:58;100723.63;;;6.67;70.46
43707;BME280;61348;53.392;-6.248;2023-04-15T01:11:26;100720.72;;;6.64;70.39
43707;BME280;61348;53.392;-6.248;2023-04-15T01:13:54;100733.66;;;6.63;70.62
43707;BME280;61348;53.392;-6.248;2023-04-15T01:16:22;100729.47;;;6.66;70.84
43707;BME280;61348;53.392;-6.248;2023-04-15T01:18:49;100737.53;;;6.62;70.68
43707;BME280;61348;53.392;-6.248;2023-04-15T01:21:16;100731.06;;;6.58;70.96
43707;BME280;61348;53.392;-6.248;2023-04-15T01:23:45;100728.63;;;6.57;71.10
43707;BME280;61348;53.392;-6.248;2023-04-15T01:26:12;100732.81;;;6.54;71.24
43707;BME280;61348;53.392;-6.248;2023-04-15T01:28:39;100733.97;;;6.53;71.18
43707;BME280;61348;53.392;-6.248;2023-04-15T01:31:10;100746.72;;;6.49;71.40
43707;BME280;61348;53.392;-6.248;2023-04-15T01:33:38;100759.50;;;6.45;71.35
43707;BME280;61348;53.392;-6.248;2023-04-15T01:36:05;100760.41;;;6.41;71.78
43707;BME280;61348;53.392;-6.248;2023-04-15T01:38:34;100762.69;;;6.39;71.87
43707;BME280;61348;53.392;-6.248;2023-04-15T01:41:01;100760.75;;;6.39;71.93
43707;BME280;61348;53.392;-6.248;2023-04-15T01:43:30;100758.50;;;6.41;71.95
43707;BME280;61348;53.392;-6.248;2023-04-15T01:45:56;100755.59;;;6.38;71.95
43707;BME280;61348;53.392;-6.248;2023-04-15T01:48:23;100764.47;;;6.35;72.48
43707;BME280;61348;53.392;-6.248;2023-04-15T01:50:51;100773.00;;;6.33;72.45
43707;BME280;61348;53.392;-6.248;2023-04-15T01:53:18;100773.00;;;6.33;72.56
43707;BME280;61348;53.392;-6.248;2023-04-15T01:55:46;100766.25;;;6.39;72.45
43707;BME280;61348;53.392;-6.248;2023-04-15T01:58:12;100770.94;;;6.39;72.31
43707;BME280;61348;53.392;-6.248;2023-04-15T02:00:39;100777.59;;;6.38;72.66
43707;BME280;61348;53.392;-6.248;2023-04-15T02:03:06;100773.81;;;6.34;72.67
43707;BME280;61348;53.392;-6.248;2023-04-15T02:05:33;100775.75;;;6.33;72.49
43707;BME280;61348;53.392;-6.248;2023-04-15T02:08:00;100788.88;;;6.36;72.54
43707;BME280;61348;53.392;-6.248;2023-04-15T02:10:26;100785.84;;;6.38;72.68
43707;BME280;61348;53.392;-6.248;2023-04-15T02:12:53;100787.75;;;6.37;72.29
43707;BME280;61348;53.392;-6.248;2023-04-15T02:15:20;100782.88;;;6.34;72.66
43707;BME280;61348;53.392;-6.248;2023-04-15T02:17:47;100794.03;;;6.29;72.69
43707;BME280;61348;53.392;-6.248;2023-04-15T02:20:17;100798.53;;;6.25;72.95
43707;BME280;61348;53.392;-6.248;2023-04-15T02:22:44;100804.66;;;6.22;73.10
43707;BME280;61348;53.392;-6.248;2023-04-15T02:25:11;100800.72;;;6.14;72.98
43707;BME280;61348;53.392;-6.248;2023-04-15T02:27:38;100798.28;;;6.13;73.03
43707;BME280;61348;53.392;-6.248;2023-04-15T02:30:05;100798.09;;;6.09;73.42
43707;BME280;61348;53.392;-6.248;2023-04-15T02:32:32;100798.91;;;6.10;73.38
43707;BME280;61348;53.392;-6.248;2023-04-15T02:35:07;100798.72;;;6.06;73.53
43707;BME280;61348;53.392;-6.248;2023-04-15T02:37:36;100795.19;;;6.06;73.66
43707;BME280;61348;53.392;-6.248;2023-04-15T02:40:09;100798.84;;;6.01;73.30
43707;BME280;61348;53.392;-6.248;2023-04-15T02:42:39;100800.44;;;5.94;73.42
43707;BME280;61348;53.392;-6.248;2023-04-15T02:45:07;100799.44;;;5.90;73.83
43707;BME280;61348;53.392;-6.248;2023-04-15T02:47:34;100800.16;;;5.82;73.77
43707;BME280;61348;53.392;-6.248;2023-04-15T02:50:06;100818.09;;;5.79;74.03
43707;BME280;61348;53.392;-6.248;2023-04-15T02:52:33;100817.25;;;5.79;74.11
43707;BME280;61348;53.392;-6.248;2023-04-15T02:55:00;100821.13;;;5.78;74.04
43707;BME280;61348;53.392;-6.248;2023-04-15T02:57:28;100814.66;;;5.74;74.20
43707;BME280;61348;53.392;-6.248;2023-04-15T02:59:55;100822.88;;;5.74;74.42
43707;BME280;61348;53.392;-6.248;2023-04-15T03:02:21;100825.31;;;5.75;74.30
43707;BME280;61348;53.392;-6.248;2023-04-15T03:04:49;100821.75;;;5.75;74.49
43707;BME280;61348;53.392;-6.248;2023-04-15T03:07:17;100828.06;;;5.75;74.36
43707;BME280;61348;53.392;-6.248;2023-04-15T03:09:44;100835.38;;;5.80;74.55
43707;BME280;61348;53.392;-6.248;2023-04-15T03:12:12;100829.97;;;5.75;74.66
43707;BME280;61348;53.392;-6.248;2023-04-15T03:14:39;100839.66;;;5.72;74.67
43707;BME280;61348;53.392;-6.248;2023-04-15T03:17:07;100848.63;;;5.64;74.64
43707;BME280;61348;53.392;-6.248;2023-04-15T03:19:34;100855.56;;;5.62;74.75
43707;BME280;61348;53.392;-6.248;2023-04-15T03:22:02;100857.19;;;5.63;74.75
43707;BME280;61348;53.392;-6.248;2023-04-15T03:24:28;100853.97;;;5.61;74.82
43707;BME280;61348;53.392;-6.248;2023-04-15T03:26:56;100870.94;;;5.63;74.75
43707;BME280;61348;53.392;-6.248;2023-04-15T03:29:23;100873.47;;;5.59;75.28
43707;BME280;61348;53.392;-6.248;2023-04-15T03:31:51;100865.06;;;5.56;74.92
43707;BME280;61348;53.392;-6.248;2023-04-15T03:34:17;100873.09;;;5.52;75.18
43707;BME280;61348;53.392;-6.248;2023-04-15T03:36:45;100872.88;;;5.48;75.17
43707;BME280;61348;53.392;-6.248;2023-04-15T03:39:12;100876.78;;;5.47;75.54
43707;BME280;61348;53.392;-6.248;2023-04-15T03:41:39;100883.97;;;5.43;75.45
43707;BME280;61348;53.392;-6.248;2023-04-15T03:44:05;100880.03;;;5.36;75.79
43707;BME280;61348;53.392;-6.248;2023-04-15T03:46:32;100890.81;;;5.32;75.67
43707;BME280;61348;53.392;-6.248;2023-04-15T03:49:00;100889.81;;;5.28;75.89
43707;BME280;61348;53.392;-6.248;2023-04-15T03:51:28;100892.34;;;5.25;75.79
43707;BME280;61348;53.392;-6.248;2023-04-15T03:53:55;100900.88;;;5.23;75.92
43707;BME280;61348;53.392;-6.248;2023-04-15T03:56:22;100906.06;;;5.25;75.96
43707;BME280;61348;53.392;-6.248;2023-04-15T03:58:49;100907.38;;;5.27;75.92
43707;BME280;61348;53.392;-6.248;2023-04-15T04:01:15;100906.06;;;5.25;76.07
43707;BME280;61348;53.392;-6.248;2023-04-15T04:03:42;100905.25;;;5.24;76.05
43707;BME280;61348;53.392;-6.248;2023-04-15T04:06:09;100914.63;;;5.23;76.22
43707;BME280;61348;53.392;-6.248;2023-04-15T04:08:37;100914.13;;;5.21;76.39
43707;BME280;61348;53.392;-6.248;2023-04-15T04:11:04;100914.22;;;5.16;76.47
43707;BME280;61348;53.392;-6.248;2023-04-15T04:13:31;100911.25;;;5.13;76.79
43707;BME280;61348;53.392;-6.248;2023-04-15T04:15:57;100913.19;;;5.12;76.46
43707;BME280;61348;53.392;-6.248;2023-04-15T04:18:24;100915.44;;;5.10;76.58
43707;BME280;61348;53.392;-6.248;2023-04-15T04:20:52;100924.56;;;5.06;76.96
43707;BME280;61348;53.392;-6.248;2023-04-15T04:23:19;100927.63;;;5.04;77.01
43707;BME280;61348;53.392;-6.248;2023-04-15T04:25:46;100926.28;;;5.02;76.82
43707;BME280;61348;53.392;-6.248;2023-04-15T04:28:13;100933.19;;;4.99;77.26
43707;BME280;61348;53.392;-6.248;2023-04-15T04:30:39;100929.84;;;5.02;76.98
43707;BME280;61348;53.392;-6.248;2023-04-15T04:33:06;100927.63;;;5.04;77.25
43707;BME280;61348;53.392;-6.248;2023-04-15T04:35:33;100922.94;;;5.05;77.11
43707;BME280;61348;53.392;-6.248;2023-04-15T04:38:03;100938.19;;;4.97;77.19
43707;BME280;61348;53.392;-6.248;2023-04-15T04:40:29;100930.06;;;4.92;77.26
43707;BME280;61348;53.392;-6.248;2023-04-15T04:42:56;100933.09;;;4.90;77.43
43707;BME280;61348;53.392;-6.248;2023-04-15T04:45:23;100942.22;;;4.86;77.69
43707;BME280;61348;53.392;-6.248;2023-04-15T04:47:50;100942.22;;;4.86;77.49
43707;BME280;61348;53.392;-6.248;2023-04-15T04:50:16;100943.03;;;4.86;77.61
43707;BME280;61348;53.392;-6.248;2023-04-15T04:52:43;100938.97;;;4.84;77.75
43707;BME280;61348;53.392;-6.248;2023-04-15T04:55:10;100940.69;;;4.80;78.06
43707;BME280;61348;53.392;-6.248;2023-04-15T04:57:37;100949.50;;;4.77;77.61
43707;BME280;61348;53.392;-6.248;2023-04-15T05:00:06;100957.22;;;4.75;77.79
43707;BME280;61348;53.392;-6.248;2023-04-15T05:02:34;100951.75;;;4.75;77.92
43707;BME280;61348;53.392;-6.248;2023-04-15T05:05:00;100946.25;;;4.75;78.04
43707;BME280;61348;53.392;-6.248;2023-04-15T05:07:27;100941.09;;;4.73;77.86
43707;BME280;61348;53.392;-6.248;2023-04-15T05:09:54;100960.06;;;4.70;78.22
43707;BME280;61348;53.392;-6.248;2023-04-15T05:12:21;100953.56;;;4.66;78.20
43707;BME280;61348;53.392;-6.248;2023-04-15T05:14:47;100959.06;;;4.66;78.17
43707;BME280;61348;53.392;-6.248;2023-04-15T05:17:14;100964.00;;;4.64;78.12
43707;BME280;61348;53.392;-6.248;2023-04-15T05:19:41;100965.13;;;4.63;78.63
43707;BME280;61348;53.392;-6.248;2023-04-15T05:22:07;100971.22;;;4.60;78.76
43707;BME280;61348;53.392;-6.248;2023-04-15T05:24:34;100983.59;;;4.57;78.53
43707;BME280;61348;53.392;-6.248;2023-04-15T05:27:01;100987.22;;;4.53;78.78
43707;BME280;61348;53.392;-6.248;2023-04-15T05:29:29;100993.31;;;4.50;78.95
43707;BME280;61348;53.392;-6.248;2023-04-15T05:31:56;100993.84;;;4.52;78.78
43707;BME280;61348;53.392;-6.248;2023-04-15T05:34:22;100998.41;;;4.56;78.81
43707;BME280;61348;53.392;-6.248;2023-04-15T05:36:49;101003.06;;;4.56;78.79
43707;BME280;61348;53.392;-6.248;2023-04-15T05:39:16;101008.88;;;4.54;78.87
43707;BME280;61348;53.392;-6.248;2023-04-15T05:41:43;101015.16;;;4.55;79.20
43707;BME280;61348;53.392;-6.248;2023-04-15T05:44:09;101017.91;;;4.55;78.90
43707;BME280;61348;53.392;-6.248;2023-04-15T05:46:36;101020.13;;;4.53;79.36
43707;BME280;61348;53.392;-6.248;2023-04-15T05:49:03;101018.50;;;4.52;79.08
43707;BME280;61348;53.392;-6.248;2023-04-15T05:51:30;101024.00;;;4.52;79.07
43707;BME280;61348;53.392;-6.248;2023-04-15T05:53:57;101033.03;;;4.52;79.24
43707;BME280;61348;53.392;-6.248;2023-04-15T05:56:23;101031.72;;;4.50;79.57
43707;BME280;61348;53.392;-6.248;2023-04-15T05:58:52;101038.78;;;4.51;79.66
43707;BME280;61348;53.392;-6.248;2023-04-15T06:01:19;101029.38;;;4.57;80.08
43707;BME280;61348;53.392;-6.248;2023-04-15T06:03:46;101049.00;;;4.64;79.96
43707;BME280;61348;53.392;-6.248;2023-04-15T06:06:13;101053.91;;;4.67;79.88
43707;BME280;61348;53.392;-6.248;2023-04-15T06:08:40;101059.31;;;4.72;79.57
43707;BME280;61348;53.392;-6.248;2023-04-15T06:11:07;101069.69;;;4.75;79.76
43707;BME280;61348;53.392;-6.248;2023-04-15T06:13:39;101068.88;;;4.74;79.56
43707;BME280;61348;53.392;-6.248;2023-04-15T06:16:06;101065.84;;;4.76;79.90
43707;BME280;61348;53.392;-6.248;2023-04-15T06:18:33;101070.41;;;4.80;80.07
43707;BME280;61348;53.392;-6.248;2023-04-15T06:21:00;101078.66;;;4.80;79.79
43707;BME280;61348;53.392;-6.248;2023-04-15T06:23:26;101079.97;;;4.83;80.24
43707;BME280;61348;53.392;-6.248;2023-04-15T06:25:53;101089.25;;;4.87;80.30
43707;BME280;61348;53.392;-6.248;2023-04-15T06:28:21;101083.97;;;4.90;80.17
43707;BME280;61348;53.392;-6.248;2023-04-15T06:30:48;101087.53;;;4.91;80.37
43707;BME280;61348;53.392;-6.248;2023-04-15T06:33:14;101094.66;;;4.92;80.03
43707;BME280;61348;53.392;-6.248;2023-04-15T06:35:41;101091.59;;;4.93;80.22
43707;BME280;61348;53.392;-6.248;2023-04-15T06:38:08;101096.78;;;4.95;80.41
43707;BME280;61348;53.392;-6.248;2023-04-15T06:40:35;101095.69;;;4.96;80.72
43707;BME280;61348;53.392;-6.248;2023-04-15T06:43:02;101104.13;;;5.00;80.83
43707;BME280;61348;53.392;-6.248;2023-04-15T06:45:30;101108.19;;;5.02;80.96
43707;BME280;61348;53.392;-6.248;2023-04-15T06:47:57;101109.75;;;5.08;80.99
43707;BME280;61348;53.392;-6.248;2023-04-15T06:50:24;101123.41;;;5.13;81.03
43707;BME280;61348;53.392;-6.248;2023-04-15T06:52:51;101134.78;;;5.20;80.70
43707;BME280;61348;53.392;-6.248;2023-04-15T06:55:18;101134.72;;;5.25;81.07
43707;BME280;61348;53.392;-6.248;2023-04-15T06:57:44;101140.09;;;5.30;80.58
43707;BME280;61348;53.392;-6.248;2023-04-15T07:00:12;101130.16;;;5.34;80.99
43707;BME280;61348;53.392;-6.248;2023-04-15T07:02:39;101138.91;;;5.36;81.01
43707;BME280;61348;53.392;-6.248;2023-04-15T07:05:06;101136.69;;;5.38;80.78
43707;BME280;61348;53.392;-6.248;2023-04-15T07:07:33;101134.66;;;5.44;81.24
43707;BME280;61348;53.392;-6.248;2023-04-15T07:10:02;101148.00;;;5.50;81.29
43707;BME280;61348;53.392;-6.248;2023-04-15T07:12:29;101147.91;;;5.56;81.43
43707;BME280;61348;53.392;-6.248;2023-04-15T07:14:57;101152.81;;;5.59;80.99
43707;BME280;61348;53.392;-6.248;2023-04-15T07:17:24;101153.00;;;5.62;81.15
43707;BME280;61348;53.392;-6.248;2023-04-15T07:19:51;101147.41;;;5.67;81.53
43707;BME280;61348;53.392;-6.248;2023-04-15T07:22:17;101153.13;;;5.71;81.22
43707;BME280;61348;53.392;-6.248;2023-04-15T07:24:45;101157.94;;;5.79;81.25
43707;BME280;61348;53.392;-6.248;2023-04-15T07:27:12;101165.25;;;5.83;81.28
43707;BME280;61348;53.392;-6.248;2023-04-15T07:29:39;101174.25;;;5.89;81.84
43707;BME280;61348;53.392;-6.248;2023-04-15T07:32:06;101178.03;;;5.93;81.47
43707;BME280;61348;53.392;-6.248;2023-04-15T07:34:32;101179.53;;;5.99;81.51
43707;BME280;61348;53.392;-6.248;2023-04-15T07:36:59;101187.69;;;6.04;81.59
43707;BME280;61348;53.392;-6.248;2023-04-15T07:39:26;101189.72;;;6.12;81.70
43707;BME280;61348;53.392;-6.248;2023-04-15T07:41:54;101195.66;;;6.19;81.56
43707;BME280;61348;53.392;-6.248;2023-04-15T07:44:21;101196.06;;;6.26;81.99
43707;BME280;61348;53.392;-6.248;2023-04-15T07:46:48;101207.47;;;6.33;81.76
43707;BME280;61348;53.392;-6.248;2023-04-15T07:49:15;101204.00;;;6.41;82.00
43707;BME280;61348;53.392;-6.248;2023-04-15T07:51:41;101220.09;;;6.48;82.02
43707;BME280;61348;53.392;-6.248;2023-04-15T07:54:09;101214.16;;;6.54;82.07
43707;BME280;61348;53.392;-6.248;2023-04-15T07:56:35;101211.53;;;6.63;82.16
43707;BME280;61348;53.392;-6.248;2023-04-15T07:59:02;101223.13;;;6.73;82.18
43707;BME280;61348;53.392;-6.248;2023-04-15T08:01:31;101224.81;;;6.83;81.67
43707;BME280;61348;53.392;-6.248;2023-04-15T08:04:01;101221.06;;;6.93;82.04
43707;BME280;61348;53.392;-6.248;2023-04-15T08:06:29;101224.69;;;7.02;82.08
43707;BME280;61348;53.392;-6.248;2023-04-15T08:08:56;101220.91;;;7.11;82.44
43707;BME280;61348;53.392;-6.248;2023-04-15T08:11:23;101226.50;;;7.20;82.73
43707;BME280;61348;53.392;-6.248;2023-04-15T08:13:51;101229.50;;;7.32;83.23
43707;BME280;61348;53.392;-6.248;2023-04-15T08:16:21;101233.03;;;7.46;83.85
43707;BME280;61348;53.392;-6.248;2023-04-15T08:18:50;101228.38;;;7.55;84.25
43707;BME280;61348;53.392;-6.248;2023-04-15T08:21:18;101227.50;;;7.68;85.41
43707;BME280;61348;53.392;-6.248;2023-04-15T08:23:46;101217.22;;;7.82;86.52
43707;BME280;61348;53.392;-6.248;2023-04-15T08:26:13;101221.22;;;7.98;87.52
43707;BME280;61348;53.392;-6.248;2023-04-15T08:28:42;101223.41;;;8.19;88.93
43707;BME280;61348;53.392;-6.248;2023-04-15T08:31:09;101235.38;;;8.45;90.35
43707;BME280;61348;53.392;-6.248;2023-04-15T08:33:36;101236.50;;;8.83;92.28
43707;BME280;61348;53.392;-6.248;2023-04-15T08:36:03;101237.38;;;9.18;94.09
43707;BME280;61348;53.392;-6.248;2023-04-15T08:38:30;101228.72;;;9.71;96.46
43707;BME280;61348;53.392;-6.248;2023-04-15T08:40:59;101233.44;;;10.43;98.11
43707;BME280;61348;53.392;-6.248;2023-04-15T08:43:33;101239.25;;;11.29;96.03
43707;BME280;61348;53.392;-6.248;2023-04-15T08:46:01;101244.22;;;12.54;97.79
43707;BME280;61348;53.392;-6.248;2023-04-15T08:48:31;101255.41;;;13.70;92.99
43707;BME280;61348;53.392;-6.248;2023-04-15T08:50:58;101264.72;;;14.80;87.80
43707;BME280;61348;53.392;-6.248;2023-04-15T08:53:28;101267.16;;;15.67;82.71
43707;BME280;61348;53.392;-6.248;2023-04-15T08:55:56;101271.44;;;16.44;77.84
43707;BME280;61348;53.392;-6.248;2023-04-15T08:58:24;101272.53;;;17.08;73.61
43707;BME280;61348;53.392;-6.248;2023-04-15T09:00:51;101277.00;;;17.65;70.01
43707;BME280;61348;53.392;-6.248;2023-04-15T09:03:18;101289.59;;;18.15;66.79
43707;BME280;61348;53.392;-6.248;2023-04-15T09:05:47;101282.72;;;18.46;63.74
43707;BME280;61348;53.392;-6.248;2023-04-15T09:08:14;101286.59;;;18.74;61.52
43707;BME280;61348;53.392;-6.248;2023-04-15T09:10:41;101291.53;;;18.84;59.16
43707;BME280;61348;53.392;-6.248;2023-04-15T09:13:08;101293.88;;;18.79;57.50
43707;BME280;61348;53.392;-6.248;2023-04-15T09:15:37;101294.38;;;18.92;57.06
43707;BME280;61348;53.392;-6.248;2023-04-15T09:18:04;101287.38;;;19.19;55.57
43707;BME280;61348;53.392;-6.248;2023-04-15T09:20:39;101289.00;;;19.23;55.09
43707;BME280;61348;53.392;-6.248;2023-04-15T09:23:13;101292.63;;;19.24;53.63
43707;BME280;61348;53.392;-6.248;2023-04-15T09:25:42;101297.50;;;19.34;51.67
43707;BME280;61348;53.392;-6.248;2023-04-15T09:28:09;101302.47;;;19.51;50.69
43707;BME280;61348;53.392;-6.248;2023-04-15T09:30:37;101297.78;;;19.76;49.96
43707;BME280;61348;53.392;-6.248;2023-04-15T09:33:04;101313.53;;;19.98;48.65
43707;BME280;61348;53.392;-6.248;2023-04-15T09:35:34;101300.34;;;20.17;47.93
43707;BME280;61348;53.392;-6.248;2023-04-15T09:38:07;101304.44;;;20.44;47.10
43707;BME280;61348;53.392;-6.248;2023-04-15T09:40:39;101306.91;;;20.59;46.44
43707;BME280;61348;53.392;-6.248;2023-04-15T09:43:08;101308.53;;;20.68;45.91
43707;BME280;61348;53.392;-6.248;2023-04-15T09:45:35;101304.44;;;20.30;45.05
43707;BME280;61348;53.392;-6.248;2023-04-15T09:48:22;101309.56;;;20.10;45.90
43707;BME280;61348;53.392;-6.248;2023-04-15T09:50:51;101307.38;;;19.75;44.99
43707;BME280;61348;53.392;-6.248;2023-04-15T09:53:20;101304.91;;;19.56;45.29
43707;BME280;61348;53.392;-6.248;2023-04-15T09:55:58;101303.78;;;19.78;44.69
43707;BME280;61348;53.392;-6.248;2023-04-15T09:58:29;101302.59;;;19.76;43.63
43707;BME280;61348;53.392;-6.248;2023-04-15T10:00:57;101311.63;;;18.90;45.01
43707;BME280;61348;53.392;-6.248;2023-04-15T10:03:30;101302.97;;;19.13;44.84
43707;BME280;61348;53.392;-6.248;2023-04-15T10:05:59;101294.56;;;19.74;44.33
43707;BME280;61348;53.392;-6.248;2023-04-15T10:08:31;101302.81;;;20.29;43.63
43707;BME280;61348;53.392;-6.248;2023-04-15T10:11:02;101310.09;;;20.58;42.95
43707;BME280;61348;53.392;-6.248;2023-04-15T10:13:31;101309.31;;;20.61;42.28
43707;BME280;61348;53.392;-6.248;2023-04-15T10:16:10;101302.50;;;20.69;42.08
43707;BME280;61348;53.392;-6.248;2023-04-15T10:18:41;101294.84;;;20.94;41.84
43707;BME280;61348;53.392;-6.248;2023-04-15T10:21:08;101303.69;;;21.03;41.44
43707;BME280;61348;53.392;-6.248;2023-04-15T10:23:35;101309.31;;;21.00;40.91
43707;BME280;61348;53.392;-6.248;2023-04-15T10:26:05;101304.13;;;20.98;40.53
43707;BME280;61348;53.392;-6.248;2023-04-15T10:28:33;101301.72;;;20.86;40.14
43707;BME280;61348;53.392;-6.248;2023-04-15T10:31:00;101306.50;;;20.68;40.08
43707;BME280;61348;53.392;-6.248;2023-04-15T10:33:27;101312.91;;;20.58;40.49
43707;BME280;61348;53.392;-6.248;2023-04-15T10:35:55;101307.69;;;20.49;40.25
43707;BME280;61348;53.392;-6.248;2023-04-15T10:38:39;101309.22;;;20.26;40.33
43707;BME280;61348;53.392;-6.248;2023-04-15T10:41:20;101305.16;;;20.09;40.43
43707;BME280;61348;53.392;-6.248;2023-04-15T10:44:03;101307.38;;;19.75;40.98
43707;BME280;61348;53.392;-6.248;2023-04-15T10:46:43;101312.88;;;19.51;40.99
43707;BME280;61348;53.392;-6.248;2023-04-15T10:49:13;101315.09;;;19.24;41.51
43707;BME280;61348;53.392;-6.248;2023-04-15T10:51:43;101310.41;;;18.88;42.21
43707;BME280;61348;53.392;-6.248;2023-04-15T10:57:07;101314.22;;;17.99;44.18
43707;BME280;61348;53.392;-6.248;2023-04-15T11:03:13;101302.81;;;17.02;45.76
43707;BME280;61348;53.392;-6.248;2023-04-15T11:05:50;101305.88;;;16.49;47.17
43707;BME280;61348;53.392;-6.248;2023-04-15T11:08:18;101303.78;;;16.23;48.17
43707;BME280;61348;53.392;-6.248;2023-04-15T11:15:40;101311.34;;;15.65;49.19
43707;BME280;61348;53.392;-6.248;2023-04-15T11:20:41;101303.34;;;15.29;49.78
43707;BME280;61348;53.392;-6.248;2023-04-15T11:23:08;101301.84;;;15.00;49.80
43707;BME280;61348;53.392;-6.248;2023-04-15T11:25:41;101290.72;;;14.84;50.42
43707;BME280;61348;53.392;-6.248;2023-04-15T11:28:10;101304.03;;;14.75;51.00
43707;BME280;61348;53.392;-6.248;2023-04-15T11:30:38;101296.66;;;14.67;51.58
43707;BME280;61348;53.392;-6.248;2023-04-15T11:33:08;101283.69;;;14.59;51.90
43707;BME280;61348;53.392;-6.248;2023-04-15T11:35:35;101307.59;;;14.44;52.67
43707;BME280;61348;53.392;-6.248;2023-04-15T11:38:08;101301.97;;;14.29;52.87
43707;BME280;61348;53.392;-6.248;2023-04-15T11:40:36;101309.94;;;14.15;53.40
43707;BME280;61348;53.392;-6.248;2023-04-15T11:43:08;101304.38;;;14.15;53.78
43707;BME280;61348;53.392;-6.248;2023-04-15T11:48:22;101320.75;;;14.16;54.22
43707;BME280;61348;53.392;-6.248;2023-04-15T11:50:58;101312.38;;;14.16;54.99
43707;BME280;61348;53.392;-6.248;2023-04-15T11:56:15;101325.03;;;14.14;55.87
43707;BME280;61348;53.392;-6.248;2023-04-15T11:58:43;101318.75;;;14.17;55.89
43707;BME280;61348;53.392;-6.248;2023-04-15T12:01:12;101317.28;;;14.07;56.20
43707;BME280;61348;53.392;-6.248;2023-04-15T12:03:46;101323.22;;;14.06;56.11
43707;BME280;61348;53.392;-6.248;2023-04-15T12:06:17;101321.69;;;14.08;55.79
43707;BME280;61348;53.392;-6.248;2023-04-15T12:16:52;101321.06;;;14.15;56.60
43707;BME280;61348;53.392;-6.248;2023-04-15T12:19:29;101324.31;;;14.17;56.78
43707;BME280;61348;53.392;-6.248;2023-04-15T12:22:00;101324.53;;;14.24;57.01
43707;BME280;61348;53.392;-6.248;2023-04-15T12:24:30;101325.22;;;14.21;56.92
43707;BME280;61348;53.392;-6.248;2023-04-15T12:27:07;101316.59;;;14.10;57.56
43707;BME280;61348;53.392;-6.248;2023-04-15T12:29:37;101329.81;;;14.13;57.54
43707;BME280;61348;53.392;-6.248;2023-04-15T12:32:10;101324.22;;;14.13;57.60
43707;BME280;61348;53.392;-6.248;2023-04-15T12:34:43;101322.84;;;14.07;57.54
43707;BME280;61348;53.392;-6.248;2023-04-15T12:37:11;101332.72;;;14.04;57.85
43707;BME280;61348;53.392;-6.248;2023-04-15T12:39:41;101340.63;;;14.02;58.01
43707;BME280;61348;53.392;-6.248;2023-04-15T12:42:09;101339.69;;;13.98;57.99
43707;BME280;61348;53.392;-6.248;2023-04-15T12:44:37;101332.31;;;13.90;58.35
43707;BME280;61348;53.392;-6.248;2023-04-15T12:47:04;101331.41;;;13.86;58.46
43707;BME280;61348;53.392;-6.248;2023-04-15T12:49:31;101335.63;;;13.68;58.64
43707;BME280;61348;53.392;-6.248;2023-04-15T12:52:02;101328.94;;;13.57;59.03
43707;BME280;61348;53.392;-6.248;2023-04-15T12:54:30;101327.34;;;13.44;59.15
43707;BME280;61348;53.392;-6.248;2023-04-15T12:56:57;101338.22;;;13.37;59.48
43707;BME280;61348;53.392;-6.248;2023-04-15T12:59:26;101333.84;;;13.36;59.43
43707;BME280;61348;53.392;-6.248;2023-04-15T13:01:52;101339.41;;;13.36;59.52
43707;BME280;61348;53.392;-6.248;2023-04-15T13:04:20;101328.03;;;13.41;59.33
43707;BME280;61348;53.392;-6.248;2023-04-15T13:06:48;101331.72;;;13.45;59.13
43707;BME280;61348;53.392;-6.248;2023-04-15T13:09:14;101327.78;;;13.46;59.25
43707;BME280;61348;53.392;-6.248;2023-04-15T13:11:41;101345.41;;;13.50;59.11
43707;BME280;61348;53.392;-6.248;2023-04-15T13:14:09;101332.41;;;13.54;59.25
43707;BME280;61348;53.392;-6.248;2023-04-15T13:16:37;101334.50;;;13.57;59.36
43707;BME280;61348;53.392;-6.248;2023-04-15T13:19:04;101333.88;;;13.64;59.20